createdAt,value
2022-10-04T00:05:30.505Z,8.10
2022-10-04T00:15:38.557Z,8.10
2022-10-04T00:25:41.918Z,8.10
2022-10-04T00:35:51.804Z,8.10
2022-10-04T00:46:00.982Z,8.20
2022-10-04T00:56:11.449Z,8.20
2022-10-04T01:06:16.488Z,8.20
2022-10-04T01:16:27.242Z,8.30
2022-10-04T01:26:42.263Z,8.10
2022-10-04T01:36:47.368Z,7.90
2022-10-04T01:46:57.011Z,8.10
2022-10-04T01:57:07.785Z,8.10
2022-10-04T02:07:17.041Z,7.90
2022-10-04T02:17:23.073Z,8.00
2022-10-04T02:27:31.441Z,8.00
2022-10-04T02:37:35.178Z,7.90
2022-10-04T02:47:46.535Z,7.70
2022-10-04T02:57:52.568Z,7.30
2022-10-04T03:07:57.831Z,7.10
2022-10-04T03:18:01.704Z,7.10
2022-10-04T03:28:07.561Z,7.40
2022-10-04T03:38:14.318Z,7.30
2022-10-04T03:48:31.205Z,7.20
2022-10-04T03:58:34.865Z,6.80
2022-10-04T04:08:44.616Z,6.50
2022-10-04T04:18:50.576Z,6.50
2022-10-04T04:28:59.210Z,6.60
2022-10-04T04:39:31.289Z,6.80
2022-10-04T04:49:40.407Z,7.00
2022-10-04T04:59:48.910Z,7.20
2022-10-04T05:09:53.545Z,7.40
2022-10-04T05:20:00.726Z,7.50
2022-10-04T05:30:10.475Z,7.70
2022-10-04T05:40:37.482Z,7.90
2022-10-04T05:50:43.744Z,8.10
2022-10-04T06:01:16.466Z,8.40
2022-10-04T06:11:42.289Z,8.80
2022-10-04T06:22:06.619Z,9.00
2022-10-04T06:32:56.483Z,9.30
2022-10-04T06:43:23.721Z,10.20
2022-10-04T06:53:42.213Z,10.50
2022-10-04T07:03:54.680Z,10.50
2022-10-04T07:14:06.658Z,11.40
2022-10-04T07:24:14.069Z,11.90
2022-10-04T07:34:25.851Z,11.40
2022-10-04T07:44:37.520Z,11.40
2022-10-04T07:54:52.590Z,11.20
2022-10-04T08:05:10.970Z,11.30
2022-10-04T08:15:37.566Z,11.60
2022-10-04T08:25:50.145Z,12.10
2022-10-04T08:36:07.660Z,12.60
2022-10-04T08:46:54.359Z,12.70
2022-10-04T08:57:27.178Z,12.20
2022-10-04T09:08:19.693Z,12.30
2022-10-04T09:19:12.938Z,12.00
2022-10-04T09:29:52.140Z,12.20
2022-10-04T09:40:47.110Z,12.10
2022-10-04T09:51:47.897Z,12.30
2022-10-04T10:02:29.269Z,12.90
2022-10-04T10:13:14.594Z,16.30
2022-10-04T10:23:52.513Z,17.60
2022-10-04T10:34:26.621Z,18.30
2022-10-04T10:44:53.225Z,15.10
2022-10-04T10:55:22.510Z,18.40
2022-10-04T11:06:00.134Z,21.90
2022-10-04T11:17:01.784Z,20.20
2022-10-04T11:27:18.158Z,20.50
2022-10-04T11:37:34.292Z,18.50
2022-10-04T11:47:50.210Z,24.50
2022-10-04T11:57:58.752Z,18.30
2022-10-04T12:08:27.517Z,17.90
2022-10-04T12:19:07.260Z,18.50
2022-10-04T12:29:54.315Z,19.50
2022-10-04T12:40:22.783Z,25.30
2022-10-04T12:50:48.013Z,21.10
2022-10-04T13:00:57.728Z,29.50
2022-10-04T13:11:34.173Z,33.90
2022-10-04T13:22:15.648Z,32.60
2022-10-04T13:32:28.800Z,25.30
2022-10-04T13:42:56.946Z,32.90
2022-10-04T13:53:35.232Z,26.90
2022-10-04T14:03:55.419Z,21.20
2022-10-04T14:14:55.773Z,26.70
2022-10-04T14:25:39.622Z,28.00
2022-10-04T14:35:53.353Z,25.40
2022-10-04T14:46:13.689Z,22.00
2022-10-04T14:56:58.206Z,17.70
2022-10-04T15:07:05.602Z,15.30
2022-10-04T15:17:26.259Z,14.30
2022-10-04T15:27:53.575Z,13.40
2022-10-04T15:38:07.242Z,12.50
2022-10-04T15:48:33.110Z,11.80
2022-10-04T15:58:59.492Z,11.00
2022-10-04T16:09:23.640Z,10.20
2022-10-04T16:19:49.283Z,9.40
2022-10-04T16:30:28.517Z,8.60
2022-10-04T16:40:38.685Z,8.00
2022-10-04T16:51:03.582Z,7.30
2022-10-04T17:02:07.340Z,6.70
2022-10-04T17:12:19.548Z,6.20
2022-10-04T17:22:34.401Z,5.70
2022-10-04T17:32:52.536Z,5.60
2022-10-04T17:43:07.046Z,5.30
2022-10-04T17:53:37.779Z,5.10
2022-10-04T18:03:46.957Z,5.00
2022-10-04T18:13:58.618Z,4.80
2022-10-04T18:24:21.005Z,4.70
2022-10-04T18:34:32.183Z,4.50
2022-10-04T18:44:48.554Z,4.30
2022-10-04T18:55:08.348Z,4.20
2022-10-04T19:05:21.896Z,4.00
2022-10-04T19:15:42.931Z,3.80
2022-10-04T19:26:17.501Z,3.70
2022-10-04T19:36:31.257Z,3.50
2022-10-04T19:46:44.710Z,3.50
2022-10-04T19:56:50.877Z,3.40
2022-10-04T20:07:01.196Z,3.20
2022-10-04T20:17:06.472Z,3.10
2022-10-04T20:28:03.796Z,3.00
2022-10-04T20:38:32.997Z,2.90
2022-10-04T20:48:37.815Z,2.90
2022-10-04T20:58:42.862Z,2.90
2022-10-04T21:08:49.220Z,2.90
2022-10-04T21:18:52.651Z,3.30
2022-10-04T21:28:58.514Z,3.80
2022-10-04T21:39:01.772Z,4.00
2022-10-04T21:49:06.871Z,3.80
2022-10-04T21:59:10.293Z,3.90
2022-10-04T22:09:15.040Z,3.80
2022-10-04T22:19:18.354Z,3.50
2022-10-04T22:29:23.336Z,3.10
2022-10-04T22:39:27.893Z,2.80
2022-10-04T22:49:34.753Z,2.60
2022-10-04T22:59:42.451Z,2.40
2022-10-04T23:09:47.318Z,2.30
2022-10-04T23:19:52.882Z,2.30
2022-10-04T23:30:03.038Z,2.10
2022-10-04T23:40:11.098Z,1.80
2022-10-04T23:50:24.842Z,1.80
